createdAt,value
2017-09-12T00:00:14.983Z,15.60
2017-09-12T00:02:41.987Z,15.60
2017-09-12T00:05:08.227Z,15.60
2017-09-12T00:07:34.494Z,15.70
2017-09-12T00:10:00.788Z,15.70
2017-09-12T00:12:27.075Z,16.10
2017-09-12T00:14:53.363Z,15.70
2017-09-12T00:17:19.634Z,15.80
2017-09-12T00:19:45.883Z,15.80
2017-09-12T00:22:12.154Z,15.70
2017-09-12T00:24:38.410Z,15.70
2017-09-12T00:27:04.663Z,16.10
2017-09-12T00:29:30.988Z,15.70
2017-09-12T00:31:57.254Z,15.70
2017-09-12T00:34:23.504Z,15.70
2017-09-12T00:36:49.775Z,15.70
2017-09-12T00:39:16.054Z,15.80
2017-09-12T00:41:42.299Z,15.70
2017-09-12T00:44:08.660Z,15.70
2017-09-12T00:46:34.992Z,15.50
2017-09-12T00:49:01.230Z,15.70
2017-09-12T00:51:27.515Z,15.60
2017-09-12T00:53:53.770Z,15.60
2017-09-12T00:56:20.026Z,15.60
2017-09-12T00:58:46.391Z,15.70
2017-09-12T01:01:13.399Z,15.60
2017-09-12T01:03:39.658Z,15.60
2017-09-12T01:06:06.678Z,15.50
2017-09-12T01:08:32.947Z,15.60
2017-09-12T01:10:59.247Z,15.60
2017-09-12T01:13:26.269Z,15.60
2017-09-12T01:15:52.557Z,15.60
2017-09-12T01:18:19.614Z,15.50
2017-09-12T01:20:46.675Z,15.50
2017-09-12T01:23:12.974Z,15.50
2017-09-12T01:25:39.218Z,15.60
2017-09-12T01:28:05.570Z,15.80
2017-09-12T01:30:31.850Z,15.40
2017-09-12T01:32:58.095Z,15.50
2017-09-12T01:35:24.432Z,15.50
2017-09-12T01:37:50.801Z,15.40
2017-09-12T01:40:17.178Z,15.40
2017-09-12T01:42:43.462Z,15.50
2017-09-12T01:45:09.722Z,15.50
2017-09-12T01:47:36.725Z,15.50
2017-09-12T01:50:03.298Z,15.50
2017-09-12T01:52:29.576Z,15.50
2017-09-12T01:54:55.917Z,15.50
2017-09-12T01:57:22.195Z,16.10
2017-09-12T01:59:49.185Z,15.50
2017-09-12T02:02:15.423Z,15.60
2017-09-12T02:04:41.774Z,15.60
2017-09-12T02:07:08.791Z,15.50
2017-09-12T02:09:35.045Z,15.50
2017-09-12T02:12:01.296Z,15.50
2017-09-12T02:14:27.536Z,15.60
2017-09-12T02:16:53.823Z,15.50
2017-09-12T02:19:20.076Z,15.60
2017-09-12T02:21:46.387Z,15.50
2017-09-12T02:24:13.372Z,15.50
2017-09-12T02:26:39.617Z,15.60
2017-09-12T02:29:06.627Z,15.50
2017-09-12T02:31:32.885Z,15.50
2017-09-12T02:33:59.158Z,15.50
2017-09-12T02:36:26.234Z,15.40
2017-09-12T02:38:53.295Z,15.40
2017-09-12T02:41:19.535Z,15.40
2017-09-12T02:43:45.806Z,15.50
2017-09-12T02:46:12.801Z,15.30
2017-09-12T02:48:39.062Z,15.30
2017-09-12T02:51:05.336Z,15.40
2017-09-12T02:53:31.582Z,15.40
2017-09-12T02:55:57.851Z,15.70
2017-09-12T02:58:24.129Z,15.60
2017-09-12T03:00:50.350Z,15.50
2017-09-12T03:03:16.620Z,15.50
2017-09-12T03:05:42.923Z,15.50
2017-09-12T03:08:09.165Z,15.40
2017-09-12T03:10:35.422Z,15.40
2017-09-12T03:13:01.666Z,15.30
2017-09-12T03:15:28.659Z,15.20
2017-09-12T03:17:54.897Z,15.20
2017-09-12T03:20:21.131Z,15.20
2017-09-12T03:22:48.141Z,15.10
2017-09-12T03:25:14.406Z,15.00
2017-09-12T03:27:40.782Z,15.50
2017-09-12T03:30:07.039Z,14.90
2017-09-12T03:32:33.484Z,14.80
2017-09-12T03:34:59.743Z,14.90
2017-09-12T03:37:26.746Z,14.80
2017-09-12T03:39:53.011Z,14.80
2017-09-12T03:42:19.251Z,14.80
2017-09-12T03:44:46.239Z,14.70
2017-09-12T03:47:12.488Z,14.70
2017-09-12T03:49:38.758Z,14.80
2017-09-12T03:52:05.758Z,14.80
2017-09-12T03:54:32.035Z,14.70
2017-09-12T03:56:58.296Z,14.70
2017-09-12T03:59:24.595Z,14.60
2017-09-12T04:01:51.620Z,14.70
2017-09-12T04:04:18.599Z,14.70
2017-09-12T04:06:44.862Z,14.60
2017-09-12T04:09:11.107Z,14.70
2017-09-12T04:11:38.269Z,14.50
2017-09-12T04:14:05.316Z,14.40
2017-09-12T04:16:32.311Z,14.40
2017-09-12T04:18:58.556Z,14.40
2017-09-12T04:21:24.876Z,14.20
2017-09-12T04:23:51.262Z,14.10
2017-09-12T04:26:17.512Z,14.20
2017-09-12T04:28:43.773Z,14.00
2017-09-12T04:31:10.134Z,14.00
2017-09-12T04:33:36.478Z,14.40
2017-09-12T04:36:02.730Z,13.90
2017-09-12T04:38:29.001Z,13.60
2017-09-12T04:40:56.007Z,13.90
2017-09-12T04:43:22.518Z,13.90
2017-09-12T04:45:48.812Z,13.90
2017-09-12T04:48:15.075Z,13.90
2017-09-12T04:50:41.334Z,13.90
2017-09-12T04:53:07.591Z,13.90
2017-09-12T04:55:33.871Z,13.90
2017-09-12T04:58:00.113Z,13.90
2017-09-12T05:00:26.375Z,13.90
2017-09-12T05:02:52.635Z,13.80
2017-09-12T05:05:18.916Z,13.90
2017-09-12T05:07:45.931Z,13.80
2017-09-12T05:10:12.185Z,13.80
2017-09-12T05:12:39.191Z,13.90
2017-09-12T05:15:05.523Z,13.90
2017-09-12T05:17:31.786Z,14.00
2017-09-12T05:19:58.039Z,14.10
2017-09-12T05:22:24.300Z,14.00
2017-09-12T05:24:50.569Z,14.10
2017-09-12T05:27:16.907Z,14.10
2017-09-12T05:29:43.177Z,14.20
2017-09-12T05:32:09.463Z,14.20
2017-09-12T05:34:35.783Z,14.10
2017-09-12T05:37:02.048Z,13.60
2017-09-12T05:39:29.056Z,14.00
2017-09-12T05:41:56.158Z,14.10
2017-09-12T05:44:22.451Z,14.10
2017-09-12T05:46:48.755Z,14.10
2017-09-12T05:49:15.049Z,14.60
2017-09-12T05:51:41.383Z,14.10
2017-09-12T05:54:07.648Z,14.10
2017-09-12T05:56:33.954Z,14.00
2017-09-12T05:59:00.249Z,14.10
2017-09-12T06:01:26.527Z,14.10
2017-09-12T06:03:52.812Z,14.00
2017-09-12T06:06:19.104Z,14.00
2017-09-12T06:08:45.376Z,14.10
2017-09-12T06:11:11.647Z,14.00
2017-09-12T06:13:37.954Z,14.00
2017-09-12T06:16:04.244Z,14.10
2017-09-12T06:18:31.271Z,14.20
2017-09-12T06:20:57.552Z,14.10
2017-09-12T06:23:23.847Z,14.50
2017-09-12T06:25:50.122Z,14.20
2017-09-12T06:28:16.414Z,14.60
2017-09-12T06:30:42.690Z,14.10
2017-09-12T06:33:09.158Z,14.20
2017-09-12T06:35:35.522Z,14.20
2017-09-12T06:38:01.838Z,14.30
2017-09-12T06:40:28.167Z,14.20
2017-09-12T06:42:54.494Z,14.30
2017-09-12T06:45:20.826Z,14.20
2017-09-12T06:47:47.103Z,14.20
2017-09-12T06:50:13.776Z,14.20
2017-09-12T06:52:40.982Z,14.30
2017-09-12T06:55:07.210Z,14.30
2017-09-12T06:57:33.615Z,14.40
2017-09-12T06:59:59.898Z,14.50
2017-09-12T07:02:26.210Z,14.50
2017-09-12T07:04:52.511Z,14.70
2017-09-12T07:07:18.796Z,15.20
2017-09-12T07:09:45.107Z,15.40
2017-09-12T07:12:11.363Z,15.20
2017-09-12T07:14:37.658Z,15.70
2017-09-12T07:17:04.837Z,15.20
2017-09-12T07:19:31.200Z,15.10
2017-09-12T07:21:57.467Z,15.20
2017-09-12T07:24:24.463Z,15.10
2017-09-12T07:26:50.786Z,15.40
2017-09-12T07:29:17.155Z,15.10
2017-09-12T07:31:43.535Z,15.00
2017-09-12T07:34:09.854Z,14.90
2017-09-12T07:36:36.167Z,15.00
2017-09-12T07:39:02.442Z,15.00
2017-09-12T07:41:29.793Z,15.10
2017-09-12T07:43:57.508Z,15.10
2017-09-12T07:46:24.070Z,15.10
2017-09-12T07:48:50.378Z,15.20
2017-09-12T07:51:17.349Z,15.80
2017-09-12T07:53:43.675Z,15.80
2017-09-12T07:56:09.978Z,16.10
2017-09-12T07:58:36.241Z,16.10
2017-09-12T08:01:02.489Z,16.00
2017-09-12T08:03:28.767Z,15.90
2017-09-12T08:05:55.759Z,15.90
2017-09-12T08:08:22.018Z,15.90
2017-09-12T08:10:48.267Z,15.80
2017-09-12T08:13:14.526Z,16.20
2017-09-12T08:15:40.859Z,16.40
2017-09-12T08:18:07.114Z,16.70
2017-09-12T08:20:34.135Z,16.60
2017-09-12T08:23:00.646Z,16.50
2017-09-12T08:25:27.126Z,16.50
2017-09-12T08:27:53.375Z,16.30
2017-09-12T08:30:20.401Z,16.20
2017-09-12T08:32:46.671Z,16.30
2017-09-12T08:35:12.942Z,16.10
2017-09-12T08:37:39.184Z,16.10
2017-09-12T08:40:05.466Z,16.20
2017-09-12T08:42:31.759Z,16.20
2017-09-12T08:44:58.043Z,15.90
2017-09-12T08:47:25.042Z,16.00
2017-09-12T08:49:52.153Z,16.20
2017-09-12T08:52:18.462Z,16.20
2017-09-12T08:54:44.710Z,16.30
2017-09-12T08:57:11.043Z,16.40
2017-09-12T08:59:37.279Z,16.30
2017-09-12T09:02:03.537Z,16.30
2017-09-12T09:04:30.523Z,16.80
2017-09-12T09:06:56.774Z,17.00
2017-09-12T09:09:23.031Z,17.10
2017-09-12T09:11:50.005Z,17.90
2017-09-12T09:14:16.255Z,17.80
2017-09-12T09:16:42.491Z,18.00
2017-09-12T09:19:08.742Z,18.20
2017-09-12T09:21:34.979Z,18.30
2017-09-12T09:24:02.008Z,18.00
2017-09-12T09:26:28.309Z,18.00
2017-09-12T09:28:54.549Z,18.00
2017-09-12T09:31:20.796Z,18.30
2017-09-12T09:33:47.828Z,17.50
2017-09-12T09:36:14.093Z,17.40
2017-09-12T09:38:40.376Z,17.80
2017-09-12T09:41:06.642Z,18.20
2017-09-12T09:43:32.914Z,17.80
2017-09-12T09:45:59.202Z,17.50
2017-09-12T09:48:26.200Z,16.80
2017-09-12T09:50:52.487Z,16.80
2017-09-12T09:53:19.519Z,17.20
2017-09-12T09:55:50.755Z,17.50
2017-09-12T09:58:17.740Z,18.00
2017-09-12T10:00:44.054Z,18.00
2017-09-12T10:03:10.321Z,18.20
2017-09-12T10:05:36.582Z,18.40
2017-09-12T10:08:03.603Z,18.80
2017-09-12T10:10:29.923Z,18.80
2017-09-12T10:12:56.207Z,19.00
2017-09-12T10:15:23.219Z,19.40
2017-09-12T10:17:49.482Z,19.40
2017-09-12T10:20:15.737Z,19.70
2017-09-12T10:22:41.984Z,20.00
2017-09-12T10:25:08.248Z,20.00
2017-09-12T10:27:35.246Z,19.90
2017-09-12T10:30:01.554Z,19.90
2017-09-12T10:32:27.807Z,19.90
2017-09-12T10:34:54.074Z,20.10
2017-09-12T10:37:21.070Z,19.70
2017-09-12T10:39:47.360Z,19.70
2017-09-12T10:42:13.598Z,19.90
2017-09-12T10:44:39.886Z,19.80
2017-09-12T10:47:06.286Z,20.00
2017-09-12T10:49:32.546Z,19.90
2017-09-12T10:51:59.062Z,20.10
2017-09-12T10:54:25.296Z,20.20
2017-09-12T10:56:51.577Z,20.30
2017-09-12T10:59:17.851Z,20.40
2017-09-12T11:01:44.123Z,19.80
2017-09-12T11:04:10.371Z,20.80
2017-09-12T11:06:36.664Z,20.80
2017-09-12T11:09:03.676Z,20.00
2017-09-12T11:11:29.906Z,20.00
2017-09-12T11:13:56.162Z,20.00
2017-09-12T11:16:23.148Z,20.50
2017-09-12T11:18:49.447Z,20.50
2017-09-12T11:21:16.634Z,20.70
2017-09-12T11:23:42.874Z,20.70
2017-09-12T11:26:09.143Z,20.90
2017-09-12T11:28:36.196Z,21.10
2017-09-12T11:31:02.464Z,21.10
2017-09-12T11:33:28.762Z,21.00
2017-09-12T11:35:55.029Z,21.20
2017-09-12T11:38:21.312Z,21.10
2017-09-12T11:40:47.656Z,20.60
2017-09-12T11:43:13.928Z,20.10
2017-09-12T11:45:40.218Z,19.80
2017-09-12T11:48:06.543Z,19.50
2017-09-12T11:50:32.860Z,19.30
2017-09-12T11:52:59.167Z,19.20
2017-09-12T11:55:26.185Z,19.80
2017-09-12T11:57:52.471Z,19.80
2017-09-12T12:00:18.792Z,20.10
2017-09-12T12:02:45.081Z,20.80
2017-09-12T12:05:12.112Z,20.60
2017-09-12T12:07:38.399Z,20.60
2017-09-12T12:10:04.592Z,21.30
2017-09-12T12:12:30.897Z,20.90
2017-09-12T12:14:57.186Z,21.10
2017-09-12T12:17:23.590Z,21.20
2017-09-12T12:19:49.895Z,21.20
2017-09-12T12:22:16.215Z,20.40
2017-09-12T12:24:42.478Z,21.00
2017-09-12T12:27:09.503Z,20.70
2017-09-12T12:29:35.787Z,20.70
2017-09-12T12:32:02.059Z,20.20
2017-09-12T12:34:28.347Z,19.00
2017-09-12T12:36:54.631Z,18.80
2017-09-12T12:39:21.666Z,19.20
2017-09-12T12:41:48.701Z,19.50
2017-09-12T12:44:15.749Z,20.10
2017-09-12T12:46:42.050Z,20.00
2017-09-12T12:49:08.352Z,20.60
2017-09-12T12:51:34.631Z,20.90
2017-09-12T12:54:01.668Z,20.70
2017-09-12T12:56:27.961Z,20.70
2017-09-12T12:58:54.251Z,20.30
2017-09-12T13:01:21.241Z,20.00
2017-09-12T13:03:47.514Z,20.10
2017-09-12T13:06:13.793Z,20.30
2017-09-12T13:08:40.088Z,20.10
2017-09-12T13:11:07.112Z,19.50
2017-09-12T13:13:33.482Z,19.50
2017-09-12T13:15:59.837Z,19.10
2017-09-12T13:18:26.114Z,18.90
2017-09-12T13:20:53.150Z,18.10
2017-09-12T13:23:20.193Z,18.00
2017-09-12T13:25:46.499Z,18.00
2017-09-12T13:28:12.955Z,18.20
2017-09-12T13:30:40.228Z,17.80
2017-09-12T13:33:06.541Z,17.70
2017-09-12T13:35:32.812Z,18.10
2017-09-12T13:37:59.116Z,18.40
2017-09-12T13:40:25.309Z,18.70
2017-09-12T13:42:52.377Z,19.30
2017-09-12T13:45:18.645Z,19.30
2017-09-12T13:47:44.943Z,19.60
2017-09-12T13:50:11.251Z,19.90
2017-09-12T13:52:37.509Z,20.10
2017-09-12T13:55:03.799Z,20.20
2017-09-12T13:57:30.063Z,20.20
2017-09-12T13:59:57.059Z,20.60
2017-09-12T14:02:23.323Z,20.70
2017-09-12T14:04:50.335Z,20.60
2017-09-12T14:07:16.596Z,20.50
2017-09-12T14:09:43.639Z,20.50
2017-09-12T14:12:10.645Z,20.20
2017-09-12T14:14:36.927Z,20.20
2017-09-12T14:17:03.251Z,20.40
2017-09-12T14:19:29.547Z,20.50
2017-09-12T14:21:55.919Z,20.50
2017-09-12T14:24:22.170Z,20.60
2017-09-12T14:26:48.440Z,20.70
2017-09-12T14:29:14.709Z,20.70
2017-09-12T14:31:40.982Z,20.60
2017-09-12T14:34:07.231Z,20.40
2017-09-12T14:36:34.256Z,20.30
2017-09-12T14:39:00.509Z,20.20
2017-09-12T14:41:27.675Z,20.50
2017-09-12T14:43:53.974Z,20.50
2017-09-12T14:46:20.239Z,20.30
2017-09-12T14:48:46.556Z,20.60
2017-09-12T14:51:12.855Z,20.00
2017-09-12T14:53:39.920Z,19.90
2017-09-12T14:56:06.135Z,19.90
2017-09-12T14:58:33.161Z,19.70
2017-09-12T15:00:59.410Z,19.60
2017-09-12T15:03:25.673Z,19.60
2017-09-12T15:05:52.011Z,19.60
2017-09-12T15:08:18.087Z,19.50
2017-09-12T15:10:44.171Z,19.80
2017-09-12T15:13:10.277Z,19.60
2017-09-12T15:15:36.386Z,19.20
2017-09-12T15:18:02.526Z,19.10
2017-09-12T15:20:29.387Z,18.60
2017-09-12T15:22:55.475Z,18.60
2017-09-12T15:25:21.560Z,18.80
2017-09-12T15:27:48.402Z,18.90
2017-09-12T15:30:14.484Z,18.90
2017-09-12T15:32:40.579Z,18.90
2017-09-12T15:35:06.750Z,18.90
2017-09-12T15:37:32.963Z,19.00
2017-09-12T15:39:59.940Z,18.90
2017-09-12T15:42:26.866Z,18.90
2017-09-12T15:44:52.932Z,18.90
2017-09-12T15:47:19.011Z,19.00
2017-09-12T15:49:45.081Z,18.80
2017-09-12T15:52:11.165Z,19.00
2017-09-12T15:54:37.351Z,18.60
2017-09-12T15:57:03.457Z,18.60
2017-09-12T15:59:29.540Z,18.60
2017-09-12T16:01:55.630Z,18.60
2017-09-12T16:04:21.726Z,19.00
2017-09-12T16:06:47.823Z,18.80
2017-09-12T16:09:21.031Z,18.40
2017-09-12T16:11:47.858Z,18.30
2017-09-12T16:14:14.687Z,18.30
2017-09-12T16:16:40.843Z,18.70
2017-09-12T16:19:07.057Z,18.20
2017-09-12T16:21:33.886Z,18.20
2017-09-12T16:24:00.012Z,18.20
2017-09-12T16:26:26.846Z,18.30
2017-09-12T16:28:53.743Z,18.30
2017-09-12T16:31:19.862Z,18.30
2017-09-12T16:33:45.944Z,18.30
2017-09-12T16:36:12.835Z,18.30
2017-09-12T16:38:38.940Z,18.30
2017-09-12T16:41:05.024Z,18.20
2017-09-12T16:43:31.103Z,18.20
2017-09-12T16:45:57.243Z,18.30
2017-09-12T16:48:23.343Z,18.30
2017-09-12T16:50:49.482Z,18.70
2017-09-12T16:53:15.610Z,18.30
2017-09-12T16:55:41.797Z,18.20
2017-09-12T16:58:07.917Z,18.20
2017-09-12T17:00:34.843Z,17.90
2017-09-12T17:03:01.772Z,17.90
2017-09-12T17:05:27.979Z,17.90
2017-09-12T17:07:54.071Z,17.70
2017-09-12T17:10:20.280Z,17.70
2017-09-12T17:12:47.243Z,17.60
2017-09-12T17:15:13.410Z,17.60
2017-09-12T17:17:39.611Z,17.70
2017-09-12T17:20:05.732Z,17.60
2017-09-12T17:22:31.827Z,17.70
2017-09-12T17:24:58.654Z,17.50
2017-09-12T17:27:24.750Z,17.40
2017-09-12T17:29:50.818Z,17.50
2017-09-12T17:32:17.664Z,17.50
2017-09-12T17:34:43.795Z,17.50
2017-09-12T17:37:09.983Z,17.50
2017-09-12T17:39:36.165Z,17.40
2017-09-12T17:42:03.211Z,17.40
2017-09-12T17:44:29.437Z,17.30
2017-09-12T17:46:55.543Z,17.20
2017-09-12T17:49:21.595Z,17.10
2017-09-12T17:51:47.655Z,17.10
2017-09-12T17:54:14.468Z,17.10
2017-09-12T17:56:40.573Z,17.10
2017-09-12T17:59:06.709Z,17.10
2017-09-12T18:01:32.803Z,17.10
2017-09-12T18:03:58.936Z,17.10
2017-09-12T18:06:25.139Z,17.10
2017-09-12T18:08:51.441Z,17.10
2017-09-12T18:11:17.694Z,17.10
2017-09-12T18:13:43.792Z,17.10
2017-09-12T18:16:10.630Z,17.00
2017-09-12T18:18:36.687Z,17.10
2017-09-12T18:21:02.813Z,16.90
2017-09-12T18:23:29.090Z,17.00
2017-09-12T18:25:55.542Z,17.00
2017-09-12T18:28:21.819Z,16.90
2017-09-12T18:30:48.178Z,16.70
2017-09-12T18:33:14.250Z,16.80
2017-09-12T18:35:40.370Z,17.20
2017-09-12T18:38:07.301Z,16.50
2017-09-12T18:40:34.107Z,16.30
2017-09-12T18:43:00.212Z,16.30
2017-09-12T18:45:27.488Z,16.40
2017-09-12T18:47:54.480Z,16.50
2017-09-12T18:50:21.357Z,16.50
2017-09-12T18:52:48.341Z,16.40
2017-09-12T18:55:15.207Z,16.30
2017-09-12T18:57:41.372Z,16.20
2017-09-12T19:00:07.520Z,16.10
2017-09-12T19:02:34.388Z,16.10
2017-09-12T19:05:01.676Z,16.20
2017-09-12T19:07:27.802Z,16.10
2017-09-12T19:09:53.917Z,16.00
2017-09-12T19:12:20.044Z,16.20
2017-09-12T19:14:46.187Z,15.90
2017-09-12T19:17:13.997Z,15.80
2017-09-12T19:19:40.178Z,15.80
2017-09-12T19:22:06.285Z,15.90
2017-09-12T19:24:32.412Z,15.70
2017-09-12T19:26:58.538Z,15.80
2017-09-12T19:29:24.717Z,15.90
2017-09-12T19:31:51.576Z,15.90
2017-09-12T19:34:17.655Z,15.90
2017-09-12T19:36:43.753Z,15.90
2017-09-12T19:39:09.880Z,15.90
2017-09-12T19:41:35.959Z,15.80
2017-09-12T19:44:02.903Z,15.70
2017-09-12T19:46:29.750Z,15.80
2017-09-12T19:48:55.828Z,15.80
2017-09-12T19:51:21.943Z,15.50
2017-09-12T19:53:48.014Z,16.00
2017-09-12T19:56:14.891Z,15.70
2017-09-12T19:58:40.968Z,15.70
2017-09-12T20:01:07.130Z,15.50
2017-09-12T20:03:33.191Z,15.50
2017-09-12T20:05:59.283Z,16.10
2017-09-12T21:30:21.669Z,15.50
2017-09-12T21:32:48.077Z,14.30
2017-09-12T21:35:14.329Z,14.30
2017-09-12T21:37:40.845Z,14.40
2017-09-12T21:40:07.411Z,14.40
2017-09-12T21:42:33.734Z,14.50
2017-09-12T21:45:00.034Z,14.50
2017-09-12T21:47:26.442Z,14.50
2017-09-12T21:49:52.736Z,14.50
2017-09-12T21:52:19.107Z,14.90
2017-09-12T21:54:45.627Z,14.50
2017-09-12T21:57:12.276Z,14.00
2017-09-12T21:59:39.694Z,14.50
2017-09-12T22:02:05.989Z,14.50
2017-09-12T22:04:32.244Z,14.70
2017-09-12T22:06:58.566Z,14.40
2017-09-12T22:09:24.820Z,14.30
2017-09-12T22:11:51.231Z,14.30
2017-09-12T22:14:17.574Z,14.30
2017-09-12T22:16:44.740Z,14.40
2017-09-12T22:19:11.824Z,14.30
2017-09-12T22:21:38.073Z,14.60
2017-09-12T22:24:07.183Z,14.40
2017-09-12T22:26:33.431Z,14.50
2017-09-12T22:29:00.423Z,14.50
2017-09-12T22:31:26.764Z,14.50
2017-09-12T22:33:53.012Z,14.40
2017-09-12T22:36:19.330Z,14.40
2017-09-12T22:38:45.559Z,14.40
2017-09-12T22:41:11.859Z,14.40
2017-09-12T22:43:38.106Z,14.30
2017-09-12T22:46:04.407Z,14.30
2017-09-12T22:48:30.655Z,14.30
2017-09-12T22:50:56.928Z,14.10
2017-09-12T22:53:23.190Z,14.00
2017-09-12T22:55:49.463Z,14.10
2017-09-12T22:58:16.489Z,14.00
2017-09-12T23:00:42.765Z,14.00
2017-09-12T23:03:09.097Z,13.90
2017-09-12T23:05:35.481Z,13.90
2017-09-12T23:08:01.815Z,14.10
2017-09-12T23:10:28.155Z,14.00
2017-09-12T23:12:54.460Z,14.00
2017-09-12T23:15:20.825Z,13.90
2017-09-12T23:17:47.831Z,13.80
2017-09-12T23:20:14.095Z,13.80
2017-09-12T23:22:41.112Z,13.90
2017-09-12T23:25:07.491Z,13.90
2017-09-12T23:27:34.523Z,14.00
2017-09-12T23:30:01.548Z,14.00
2017-09-12T23:32:27.802Z,14.00
2017-09-12T23:34:54.816Z,14.10
2017-09-12T23:37:21.189Z,14.10
2017-09-12T23:39:47.498Z,14.00
2017-09-12T23:42:14.557Z,14.20
2017-09-12T23:44:40.853Z,14.20
2017-09-12T23:47:07.113Z,13.80
2017-09-12T23:49:34.109Z,14.00
2017-09-12T23:52:01.159Z,14.00
2017-09-12T23:54:27.440Z,14.00
2017-09-12T23:56:53.677Z,14.10
2017-09-12T23:59:19.964Z,14.20
